»·PEaware :: N623LS KCMA-KDLO

N623LS :: KCMA-KDLO

FLIGHT INFORMATION

Flight Status: Arrived
Operator: Privately registered:
United States
More flights under this callsign
Pilot: Anonymous 18292 (18292)
Aircraft: PIPER PA-28R-201 ARROW
(P28R)
More flights by this aircraft type
Origin: KCMA Camarillo
United States
Destination: KDLO Delano Mun
United States
More flights between these airports :: More routes between these airports
Route: +KDLO
File this flight plan on PilotEdge
Remarks:
Altitude:
(Current/Filed)
8,500ft
Speed:
(Current/Filed)
144kts
Departed: 13-Mar-18 10:16 AM
Arrived: 13-Mar-18 11:03 AM
Distance/Time
Traveled:
92nm/0:47
Distance/Time
To Go:
Arrived

Flight Plot

Page will automatically refresh every two minutes.

Flight plan parsing failed; only flown route is shown


Map Options




Map Legend


Flown Route
Filed Route
Departure Airport
Arrival Airport
Navaid (VOR, NDB)
Fix

Horizontal Profiles

Position Reports

Time Latitude Longitude Heading Altitude Ground
Speed
13-Mar-18 10:03 34.209641 -119.076832 270 80ft 0kts
13-Mar-18 10:04 34.210556 -119.089459 270 80ft 0kts
13-Mar-18 10:05 34.210556 -119.089459 270 80ft 0kts
13-Mar-18 10:06 34.210556 -119.089459 270 80ft 0kts
13-Mar-18 10:07 34.210556 -119.089459 270 80ft 0kts
13-Mar-18 10:08 34.210556 -119.089459 270 80ft 0kts
13-Mar-18 10:09 34.210970 -119.089150 89 80ft 6kts
13-Mar-18 10:10 34.210945 -119.086119 90 80ft 10kts
13-Mar-18 10:11 34.212584 -119.084623 359 80ft 10kts
13-Mar-18 10:12 34.212844 -119.084623 0 80ft 0kts
13-Mar-18 10:13 34.212844 -119.084623 0 80ft 0kts
13-Mar-18 10:14 34.213696 -119.085667 270 80ft 30kts
13-Mar-18 10:15 34.214164 -119.111363 275 821ft 93kts
13-Mar-18 10:16 34.223261 -119.141497 289 1764ft 98kts
13-Mar-18 10:17 34.232325 -119.172651 307 2678ft 100kts
13-Mar-18 10:18 34.254246 -119.165614 65 3547ft 100kts
13-Mar-18 10:19 34.264937 -119.133207 65 4352ft 104kts
13-Mar-18 10:20 34.278617 -119.102086 54 5180ft 106kts
13-Mar-18 10:21 34.303372 -119.086244 10 6067ft 108kts
13-Mar-18 10:22 34.334856 -119.075332 28 6541ft 138kts
13-Mar-18 10:23 34.369335 -119.048422 35 6552ft 151kts
13-Mar-18 10:24 34.403799 -119.018719 35 6547ft 151kts
13-Mar-18 10:25 34.437728 -118.989463 36 6475ft 150kts
13-Mar-18 10:26 34.473144 -118.963114 24 6674ft 153kts
13-Mar-18 10:27 34.515950 -118.952197 5 6634ft 164kts
13-Mar-18 10:28 34.558290 -118.959167 323 6665ft 160kts
13-Mar-18 10:29 34.591603 -118.980451 341 7778ft 124kts
13-Mar-18 10:30 34.624627 -118.992282 344 8628ft 126kts
13-Mar-18 10:31 34.664138 -119.001042 356 8783ft 156kts
13-Mar-18 10:32 34.702753 -118.975675 43 8599ft 167kts
13-Mar-18 10:33 34.737880 -118.940360 38 8578ft 160kts
13-Mar-18 10:34 34.773251 -118.910767 32 8696ft 159kts
13-Mar-18 10:35 34.813337 -118.888907 7 8698ft 161kts
13-Mar-18 10:36 34.856976 -118.893922 350 8677ft 163kts
13-Mar-18 10:37 34.900191 -118.904442 344 8630ft 163kts
13-Mar-18 10:38 34.942884 -118.921567 336 8570ft 163kts
13-Mar-18 10:39 34.984253 -118.944617 334 8556ft 159kts
13-Mar-18 10:40 35.026676 -118.960869 350 8623ft 161kts
13-Mar-18 10:41 35.072400 -118.974009 342 8708ft 170kts
13-Mar-18 10:42 35.116424 -118.984098 344 8676ft 173kts
13-Mar-18 10:43 35.163312 -118.995156 339 8577ft 173kts
13-Mar-18 10:44 35.208398 -119.012646 332 8457ft 162kts
13-Mar-18 10:45 35.248099 -119.029591 337 7584ft 152kts
13-Mar-18 10:46 35.288311 -119.041747 353 6630ft 148kts
13-Mar-18 10:47 35.328826 -119.046176 353 5684ft 145kts
13-Mar-18 10:48 35.368168 -119.055988 349 4754ft 144kts
13-Mar-18 10:49 35.406240 -119.072407 326 4519ft 149kts
13-Mar-18 10:50 35.437941 -119.104710 318 4421ft 149kts
13-Mar-18 10:51 35.468847 -119.137493 318 4188ft 147kts
13-Mar-18 10:52 35.503234 -119.162543 345 3879ft 144kts
13-Mar-18 10:53 35.542076 -119.177352 344 3492ft 147kts
13-Mar-18 10:54 35.578467 -119.188890 347 2597ft 129kts
13-Mar-18 10:55 35.612643 -119.200648 342 1966ft 126kts
13-Mar-18 10:56 35.646927 -119.214669 338 1794ft 132kts
13-Mar-18 10:57 35.680557 -119.231640 330 1582ft 129kts
13-Mar-18 10:58 35.712737 -119.242268 8 1369ft 111kts
13-Mar-18 10:59 35.740793 -119.246426 335 1258ft 100kts
13-Mar-18 11:00 35.764156 -119.249159 80 897ft 95kts
13-Mar-18 11:01 35.748144 -119.237677 168 329ft 66kts
13-Mar-18 11:02 35.738500 -119.233691 294 317ft 10kts
13-Mar-18 11:03 35.741685 -119.236372 338 317ft 22kts

Navigation Log

Ident Type
Flight plan parsing failed, navigation log unavailable